This is the latest recevied weather packets stored in our database for station/object AI5KP-13. If no packets are shown the sender has not sent any weather packets the latest 1 day(s).
| Time | Temp. | Humidity | Pressure | Rain* | Wind** | Luminosity | Snow |
|---|---|---|---|---|---|---|---|
| 1778084534 | 12.78° C | 67% | 1016.6 hPa | 0 mm | - | 298 W/m² | - |
| 1778084231 | 12.22° C | 69% | 1016.4 hPa | 0 mm | - | 318 W/m² | - |
| 1778083016 | 12.22° C | 69% | 1016.6 hPa | 0 mm | - | 205 W/m² | - |
| 1778080974 | 11.67° C | 70% | 1016.2 hPa | 0 mm | - | 257 W/m² | - |
| 1778080673 | 11.67° C | 71% | 1015.9 hPa | 0 mm | - | 314 W/m² | - |
| 1778080369 | 11.67° C | 71% | 1016.4 hPa | 0 mm | - | 305 W/m² | - |
| 1778079763 | 12.78° C | 69% | 1016.5 hPa | 0 mm | - | 419 W/m² | - |
| 1778079156 | 11.67° C | 71% | 1016.4 hPa | 0 mm | - | 403 W/m² | - |
| 1778078248 | 10° C | 76% | 1015.8 hPa | 0 mm | - | 239 W/m² | - |
| 1778077946 | 10.56° C | 77% | 1016 hPa | 0 mm | - | 150 W/m² | - |
| 1778075221 | 10.56° C | 78% | 1015.7 hPa | 0 mm | - | 150 W/m² | - |
| 1778072796 | 9.44° C | 78% | 1015.8 hPa | 0 mm | - | 116 W/m² | - |
| 1778071889 | 9.44° C | 78% | 1015.9 hPa | 0 mm | - | 77 W/m² | - |
| 1778069772 | 8.89° C | 80% | 1015.2 hPa | 0 mm | - | 29 W/m² | - |
| 1778068863 | 8.89° C | 81% | 1014.7 hPa | 0 mm | - | 21 W/m² | - |
| 1778066443 | 8.89° C | 81% | 1014.3 hPa | 0 mm | - | 1 W/m² | - |
| 1778066141 | 8.89° C | 82% | 1014 hPa | 0 mm | - | 0 W/m² | - |
| 1778065838 | 8.89° C | 82% | 1013.9 hPa | 0 mm | - | 0 W/m² | - |
| 1778065233 | 8.89° C | 80% | 1014.2 hPa | 0 mm | - | 0 W/m² | - |
| 1778064626 | 8.89° C | 81% | 1013.7 hPa | 0 mm | - | 0 W/m² | - |
| 1778064022 | 8.89° C | 81% | 1013.5 hPa | 0 mm | - | 0 W/m² | - |
| 1778063114 | 8.89° C | 81% | 1013.2 hPa | 0 mm | - | 0 W/m² | - |
| 1778062811 | 8.89° C | 80% | 1013 hPa | 0 mm | - | 0 W/m² | - |
| 1778060693 | 8.89° C | 80% | 1011.9 hPa | 0 mm | - | 0 W/m² | - |
| 1778060390 | 8.89° C | 81% | 1011.7 hPa | 0 mm | - | 0 W/m² | - |
* Rain latest hour (hover to see other rain measurements)
** Current wind speed in m/s (hover to see current wind gust speed)